sensor_id;sensor_type;location;lat;lon;timestamp;P1;durP1;ratioP1;P2;durP2;ratioP2
38611;SDS011;24368;52.156;20.788;2022-10-16T00:02:25;9.60;;;8.30;;
38611;SDS011;24368;52.156;20.788;2022-10-16T00:07:27;11.00;;;9.20;;
38611;SDS011;24368;52.156;20.788;2022-10-16T00:12:28;8.90;;;8.10;;
38611;SDS011;24368;52.156;20.788;2022-10-16T00:17:30;9.40;;;8.40;;
38611;SDS011;24368;52.156;20.788;2022-10-16T00:22:32;7.90;;;7.20;;
38611;SDS011;24368;52.156;20.788;2022-10-16T00:27:34;7.70;;;7.00;;
38611;SDS011;24368;52.156;20.788;2022-10-16T00:32:35;9.10;;;8.20;;
38611;SDS011;24368;52.156;20.788;2022-10-16T00:37:37;9.90;;;8.90;;
38611;SDS011;24368;52.156;20.788;2022-10-16T00:42:38;10.40;;;9.30;;
38611;SDS011;24368;52.156;20.788;2022-10-16T00:47:41;10.50;;;9.20;;
38611;SDS011;24368;52.156;20.788;2022-10-16T00:52:48;10.40;;;8.60;;
38611;SDS011;24368;52.156;20.788;2022-10-16T00:57:51;10.60;;;9.30;;
38611;SDS011;24368;52.156;20.788;2022-10-16T01:02:58;10.60;;;9.60;;
38611;SDS011;24368;52.156;20.788;2022-10-16T01:08:04;8.70;;;7.80;;
38611;SDS011;24368;52.156;20.788;2022-10-16T01:13:18;10.80;;;9.10;;
38611;SDS011;24368;52.156;20.788;2022-10-16T01:34:33;11.70;;;9.90;;
38611;SDS011;24368;52.156;20.788;2022-10-16T01:39:39;10.20;;;9.30;;
38611;SDS011;24368;52.156;20.788;2022-10-16T01:44:46;12.40;;;10.10;;
38611;SDS011;24368;52.156;20.788;2022-10-16T01:49:50;11.70;;;9.30;;
38611;SDS011;24368;52.156;20.788;2022-10-16T01:54:54;10.70;;;9.60;;
38611;SDS011;24368;52.156;20.788;2022-10-16T02:00:00;10.80;;;9.70;;
38611;SDS011;24368;52.156;20.788;2022-10-16T02:05:11;10.70;;;9.70;;
38611;SDS011;24368;52.156;20.788;2022-10-16T02:10:22;11.30;;;10.30;;
38611;SDS011;24368;52.156;20.788;2022-10-16T02:15:26;10.80;;;9.80;;
38611;SDS011;24368;52.156;20.788;2022-10-16T02:20:28;10.90;;;9.70;;
38611;SDS011;24368;52.156;20.788;2022-10-16T02:25:41;9.80;;;8.60;;
38611;SDS011;24368;52.156;20.788;2022-10-16T02:36:00;10.40;;;9.30;;
38611;SDS011;24368;52.156;20.788;2022-10-16T02:41:02;11.90;;;10.70;;
38611;SDS011;24368;52.156;20.788;2022-10-16T02:46:06;10.70;;;9.60;;
38611;SDS011;24368;52.156;20.788;2022-10-16T02:51:07;11.20;;;10.10;;
38611;SDS011;24368;52.156;20.788;2022-10-16T02:56:09;12.00;;;10.40;;
38611;SDS011;24368;52.156;20.788;2022-10-16T03:01:10;10.60;;;9.50;;
38611;SDS011;24368;52.156;20.788;2022-10-16T03:06:13;10.90;;;9.70;;
38611;SDS011;24368;52.156;20.788;2022-10-16T03:11:15;12.10;;;10.60;;
38611;SDS011;24368;52.156;20.788;2022-10-16T03:16:16;10.90;;;9.70;;
38611;SDS011;24368;52.156;20.788;2022-10-16T03:21:18;12.90;;;9.80;;
38611;SDS011;24368;52.156;20.788;2022-10-16T03:26:19;14.50;;;10.30;;
38611;SDS011;24368;52.156;20.788;2022-10-16T03:31:21;10.60;;;9.50;;
38611;SDS011;24368;52.156;20.788;2022-10-16T03:36:23;11.10;;;10.00;;
38611;SDS011;24368;52.156;20.788;2022-10-16T03:41:24;13.20;;;10.30;;
38611;SDS011;24368;52.156;20.788;2022-10-16T03:46:26;14.00;;;10.50;;
38611;SDS011;24368;52.156;20.788;2022-10-16T03:51:28;11.40;;;10.20;;
38611;SDS011;24368;52.156;20.788;2022-10-16T03:56:29;11.70;;;10.60;;
38611;SDS011;24368;52.156;20.788;2022-10-16T04:01:31;10.80;;;9.80;;
38611;SDS011;24368;52.156;20.788;2022-10-16T04:06:32;13.20;;;10.90;;
38611;SDS011;24368;52.156;20.788;2022-10-16T04:11:34;12.40;;;10.70;;
38611;SDS011;24368;52.156;20.788;2022-10-16T04:16:35;11.30;;;10.20;;
38611;SDS011;24368;52.156;20.788;2022-10-16T04:21:37;11.10;;;10.00;;
38611;SDS011;24368;52.156;20.788;2022-10-16T04:26:38;11.10;;;10.00;;
38611;SDS011;24368;52.156;20.788;2022-10-16T04:31:40;12.00;;;10.80;;
38611;SDS011;24368;52.156;20.788;2022-10-16T04:36:41;11.50;;;10.40;;
38611;SDS011;24368;52.156;20.788;2022-10-16T04:41:43;11.00;;;9.90;;
38611;SDS011;24368;52.156;20.788;2022-10-16T04:46:44;11.50;;;10.30;;
38611;SDS011;24368;52.156;20.788;2022-10-16T04:51:46;11.10;;;10.00;;
38611;SDS011;24368;52.156;20.788;2022-10-16T04:56:47;11.30;;;10.20;;
38611;SDS011;24368;52.156;20.788;2022-10-16T05:01:51;13.70;;;11.40;;
38611;SDS011;24368;52.156;20.788;2022-10-16T05:06:53;12.20;;;11.00;;
38611;SDS011;24368;52.156;20.788;2022-10-16T05:11:54;14.30;;;11.40;;
38611;SDS011;24368;52.156;20.788;2022-10-16T05:16:56;11.80;;;10.50;;
38611;SDS011;24368;52.156;20.788;2022-10-16T05:21:58;12.30;;;9.90;;
38611;SDS011;24368;52.156;20.788;2022-10-16T05:27:00;12.10;;;10.90;;
38611;SDS011;24368;52.156;20.788;2022-10-16T05:32:01;12.90;;;11.60;;
38611;SDS011;24368;52.156;20.788;2022-10-16T05:37:03;13.00;;;11.70;;
38611;SDS011;24368;52.156;20.788;2022-10-16T05:42:05;13.80;;;11.60;;
38611;SDS011;24368;52.156;20.788;2022-10-16T05:47:06;12.70;;;9.90;;
38611;SDS011;24368;52.156;20.788;2022-10-16T05:52:08;12.30;;;11.00;;
38611;SDS011;24368;52.156;20.788;2022-10-16T05:57:10;12.70;;;11.10;;
38611;SDS011;24368;52.156;20.788;2022-10-16T06:02:12;14.80;;;12.00;;
38611;SDS011;24368;52.156;20.788;2022-10-16T06:07:14;11.90;;;10.70;;
38611;SDS011;24368;52.156;20.788;2022-10-16T06:12:16;12.60;;;10.60;;
38611;SDS011;24368;52.156;20.788;2022-10-16T06:17:18;11.70;;;10.30;;
38611;SDS011;24368;52.156;20.788;2022-10-16T06:22:19;11.60;;;10.40;;
38611;SDS011;24368;52.156;20.788;2022-10-16T06:27:21;12.50;;;11.10;;
38611;SDS011;24368;52.156;20.788;2022-10-16T06:32:22;11.90;;;10.70;;
38611;SDS011;24368;52.156;20.788;2022-10-16T06:37:24;12.20;;;11.00;;
38611;SDS011;24368;52.156;20.788;2022-10-16T06:42:26;14.70;;;10.70;;
38611;SDS011;24368;52.156;20.788;2022-10-16T06:47:28;11.20;;;10.10;;
38611;SDS011;24368;52.156;20.788;2022-10-16T06:52:29;12.00;;;10.60;;
38611;SDS011;24368;52.156;20.788;2022-10-16T06:57:31;11.80;;;10.60;;
38611;SDS011;24368;52.156;20.788;2022-10-16T07:02:32;12.30;;;10.60;;
38611;SDS011;24368;52.156;20.788;2022-10-16T07:07:34;12.60;;;11.20;;
38611;SDS011;24368;52.156;20.788;2022-10-16T07:12:35;13.20;;;11.00;;
38611;SDS011;24368;52.156;20.788;2022-10-16T07:17:37;15.80;;;11.20;;
38611;SDS011;24368;52.156;20.788;2022-10-16T07:22:39;12.60;;;11.20;;
38611;SDS011;24368;52.156;20.788;2022-10-16T07:27:40;13.20;;;11.90;;
38611;SDS011;24368;52.156;20.788;2022-10-16T07:32:42;13.10;;;11.80;;
38611;SDS011;24368;52.156;20.788;2022-10-16T07:37:44;12.50;;;11.30;;
38611;SDS011;24368;52.156;20.788;2022-10-16T07:42:47;12.30;;;10.70;;
38611;SDS011;24368;52.156;20.788;2022-10-16T07:47:48;12.10;;;10.00;;
38611;SDS011;24368;52.156;20.788;2022-10-16T07:52:50;11.30;;;9.40;;
38611;SDS011;24368;52.156;20.788;2022-10-16T07:57:51;9.90;;;9.10;;
38611;SDS011;24368;52.156;20.788;2022-10-16T08:02:53;12.20;;;10.90;;
38611;SDS011;24368;52.156;20.788;2022-10-16T08:07:55;11.50;;;10.30;;
38611;SDS011;24368;52.156;20.788;2022-10-16T08:12:57;11.50;;;9.90;;
38611;SDS011;24368;52.156;20.788;2022-10-16T08:18:00;12.60;;;10.50;;
38611;SDS011;24368;52.156;20.788;2022-10-16T08:23:04;11.20;;;10.20;;
38611;SDS011;24368;52.156;20.788;2022-10-16T08:28:06;11.40;;;10.30;;
38611;SDS011;24368;52.156;20.788;2022-10-16T08:33:09;10.60;;;9.50;;
38611;SDS011;24368;52.156;20.788;2022-10-16T08:38:10;10.60;;;9.70;;
38611;SDS011;24368;52.156;20.788;2022-10-16T08:48:22;10.80;;;9.70;;
38611;SDS011;24368;52.156;20.788;2022-10-16T08:53:47;10.70;;;9.60;;
38611;SDS011;24368;52.156;20.788;2022-10-16T08:58:59;12.30;;;9.50;;
38611;SDS011;24368;52.156;20.788;2022-10-16T09:04:07;11.40;;;10.20;;
38611;SDS011;24368;52.156;20.788;2022-10-16T09:09:18;11.20;;;10.10;;
38611;SDS011;24368;52.156;20.788;2022-10-16T09:20:19;12.80;;;11.30;;
38611;SDS011;24368;52.156;20.788;2022-10-16T09:25:31;13.90;;;12.50;;
38611;SDS011;24368;52.156;20.788;2022-10-16T09:30:34;11.50;;;10.20;;
38611;SDS011;24368;52.156;20.788;2022-10-16T09:40:43;11.70;;;10.60;;
38611;SDS011;24368;52.156;20.788;2022-10-16T09:51:36;11.90;;;10.70;;
38611;SDS011;24368;52.156;20.788;2022-10-16T09:56:39;11.30;;;10.20;;
38611;SDS011;24368;52.156;20.788;2022-10-16T10:01:45;11.60;;;10.50;;
38611;SDS011;24368;52.156;20.788;2022-10-16T10:11:59;11.90;;;10.90;;
38611;SDS011;24368;52.156;20.788;2022-10-16T10:22:27;11.40;;;10.30;;
38611;SDS011;24368;52.156;20.788;2022-10-16T10:28:21;11.70;;;10.60;;
38611;SDS011;24368;52.156;20.788;2022-10-16T10:44:13;11.90;;;10.80;;
38611;SDS011;24368;52.156;20.788;2022-10-16T10:54:55;11.60;;;10.50;;
38611;SDS011;24368;52.156;20.788;2022-10-16T11:05:56;10.20;;;9.20;;
38611;SDS011;24368;52.156;20.788;2022-10-16T11:16:34;11.40;;;10.10;;
38611;SDS011;24368;52.156;20.788;2022-10-16T11:21:45;11.10;;;10.10;;
38611;SDS011;24368;52.156;20.788;2022-10-16T11:26:52;10.80;;;9.80;;
38611;SDS011;24368;52.156;20.788;2022-10-16T11:32:00;11.50;;;10.10;;
38611;SDS011;24368;52.156;20.788;2022-10-16T11:37:11;9.20;;;8.40;;
38611;SDS011;24368;52.156;20.788;2022-10-16T11:42:22;10.10;;;9.10;;
38611;SDS011;24368;52.156;20.788;2022-10-16T11:53:11;9.80;;;8.90;;
38611;SDS011;24368;52.156;20.788;2022-10-16T11:58:24;9.70;;;8.80;;
38611;SDS011;24368;52.156;20.788;2022-10-16T12:09:24;9.30;;;8.40;;
38611;SDS011;24368;52.156;20.788;2022-10-16T12:19:30;11.30;;;9.20;;
38611;SDS011;24368;52.156;20.788;2022-10-16T12:24:34;9.90;;;9.00;;
38611;SDS011;24368;52.156;20.788;2022-10-16T12:29:38;9.80;;;9.00;;
38611;SDS011;24368;52.156;20.788;2022-10-16T12:34:43;10.70;;;9.70;;
38611;SDS011;24368;52.156;20.788;2022-10-16T12:39:46;10.60;;;9.60;;
38611;SDS011;24368;52.156;20.788;2022-10-16T12:44:49;10.30;;;9.30;;
38611;SDS011;24368;52.156;20.788;2022-10-16T12:49:52;10.00;;;8.90;;
38611;SDS011;24368;52.156;20.788;2022-10-16T12:54:56;9.90;;;8.90;;
38611;SDS011;24368;52.156;20.788;2022-10-16T13:15:52;9.70;;;8.80;;
38611;SDS011;24368;52.156;20.788;2022-10-16T13:21:17;8.90;;;8.10;;
38611;SDS011;24368;52.156;20.788;2022-10-16T13:31:42;8.80;;;7.90;;
38611;SDS011;24368;52.156;20.788;2022-10-16T13:36:49;8.10;;;7.20;;
38611;SDS011;24368;52.156;20.788;2022-10-16T13:42:02;7.30;;;6.60;;
38611;SDS011;24368;52.156;20.788;2022-10-16T13:52:29;7.50;;;6.90;;
38611;SDS011;24368;52.156;20.788;2022-10-16T13:57:31;8.10;;;7.30;;
38611;SDS011;24368;52.156;20.788;2022-10-16T14:02:33;7.60;;;6.80;;
38611;SDS011;24368;52.156;20.788;2022-10-16T14:07:39;8.90;;;8.00;;
38611;SDS011;24368;52.156;20.788;2022-10-16T14:12:41;7.70;;;7.00;;
38611;SDS011;24368;52.156;20.788;2022-10-16T14:17:43;8.10;;;7.30;;
38611;SDS011;24368;52.156;20.788;2022-10-16T14:22:47;8.30;;;7.40;;
38611;SDS011;24368;52.156;20.788;2022-10-16T14:28:04;8.30;;;7.60;;
38611;SDS011;24368;52.156;20.788;2022-10-16T14:33:31;9.10;;;8.20;;
38611;SDS011;24368;52.156;20.788;2022-10-16T14:38:31;9.50;;;8.60;;
38611;SDS011;24368;52.156;20.788;2022-10-16T14:43:35;9.10;;;8.20;;
38611;SDS011;24368;52.156;20.788;2022-10-16T14:48:42;8.90;;;8.10;;
38611;SDS011;24368;52.156;20.788;2022-10-16T14:53:47;9.80;;;7.80;;
38611;SDS011;24368;52.156;20.788;2022-10-16T14:58:49;9.70;;;8.70;;
38611;SDS011;24368;52.156;20.788;2022-10-16T15:03:52;10.60;;;9.60;;
38611;SDS011;24368;52.156;20.788;2022-10-16T15:08:55;10.70;;;9.80;;
38611;SDS011;24368;52.156;20.788;2022-10-16T15:13:57;10.00;;;8.90;;
38611;SDS011;24368;52.156;20.788;2022-10-16T15:18:59;11.90;;;9.40;;
38611;SDS011;24368;52.156;20.788;2022-10-16T15:24:01;10.20;;;9.30;;
38611;SDS011;24368;52.156;20.788;2022-10-16T15:29:02;9.30;;;8.40;;
38611;SDS011;24368;52.156;20.788;2022-10-16T15:34:04;9.40;;;8.50;;
38611;SDS011;24368;52.156;20.788;2022-10-16T15:39:13;10.10;;;9.10;;
38611;SDS011;24368;52.156;20.788;2022-10-16T15:44:21;10.50;;;9.40;;
38611;SDS011;24368;52.156;20.788;2022-10-16T15:49:30;9.90;;;9.00;;
38611;SDS011;24368;52.156;20.788;2022-10-16T15:54:32;10.30;;;9.20;;
38611;SDS011;24368;52.156;20.788;2022-10-16T15:59:33;13.10;;;10.30;;
38611;SDS011;24368;52.156;20.788;2022-10-16T16:04:35;10.90;;;9.60;;
38611;SDS011;24368;52.156;20.788;2022-10-16T16:09:37;11.20;;;10.10;;
38611;SDS011;24368;52.156;20.788;2022-10-16T16:14:39;11.50;;;10.50;;
38611;SDS011;24368;52.156;20.788;2022-10-16T16:19:40;12.10;;;9.70;;
38611;SDS011;24368;52.156;20.788;2022-10-16T16:24:42;11.60;;;10.40;;
38611;SDS011;24368;52.156;20.788;2022-10-16T16:29:43;12.80;;;11.30;;
38611;SDS011;24368;52.156;20.788;2022-10-16T16:34:45;12.20;;;10.90;;
38611;SDS011;24368;52.156;20.788;2022-10-16T16:39:46;11.40;;;10.30;;
38611;SDS011;24368;52.156;20.788;2022-10-16T16:44:48;12.90;;;11.60;;
38611;SDS011;24368;52.156;20.788;2022-10-16T16:49:50;12.90;;;11.60;;
38611;SDS011;24368;52.156;20.788;2022-10-16T16:54:52;12.00;;;10.90;;
38611;SDS011;24368;52.156;20.788;2022-10-16T16:59:54;11.50;;;10.40;;
38611;SDS011;24368;52.156;20.788;2022-10-16T17:04:56;11.50;;;10.40;;
38611;SDS011;24368;52.156;20.788;2022-10-16T17:09:58;15.00;;;13.00;;
38611;SDS011;24368;52.156;20.788;2022-10-16T17:15:00;12.00;;;10.70;;
38611;SDS011;24368;52.156;20.788;2022-10-16T17:20:02;13.60;;;11.50;;
38611;SDS011;24368;52.156;20.788;2022-10-16T17:25:04;13.30;;;12.00;;
38611;SDS011;24368;52.156;20.788;2022-10-16T17:30:08;13.10;;;11.80;;
38611;SDS011;24368;52.156;20.788;2022-10-16T17:35:10;13.60;;;12.30;;
38611;SDS011;24368;52.156;20.788;2022-10-16T17:40:11;12.60;;;11.20;;
38611;SDS011;24368;52.156;20.788;2022-10-16T17:45:13;12.70;;;11.00;;
38611;SDS011;24368;52.156;20.788;2022-10-16T17:50:15;12.50;;;11.10;;
38611;SDS011;24368;52.156;20.788;2022-10-16T17:55:16;12.80;;;11.60;;
38611;SDS011;24368;52.156;20.788;2022-10-16T18:00:18;13.70;;;12.30;;
38611;SDS011;24368;52.156;20.788;2022-10-16T18:05:20;13.10;;;11.80;;
38611;SDS011;24368;52.156;20.788;2022-10-16T18:10:21;14.20;;;12.10;;
38611;SDS011;24368;52.156;20.788;2022-10-16T18:15:23;14.00;;;12.60;;
38611;SDS011;24368;52.156;20.788;2022-10-16T18:20:25;13.00;;;11.90;;
38611;SDS011;24368;52.156;20.788;2022-10-16T18:25:26;14.90;;;13.50;;
38611;SDS011;24368;52.156;20.788;2022-10-16T18:30:28;13.40;;;12.20;;
38611;SDS011;24368;52.156;20.788;2022-10-16T18:35:29;13.30;;;12.10;;
38611;SDS011;24368;52.156;20.788;2022-10-16T18:40:31;12.60;;;11.30;;
38611;SDS011;24368;52.156;20.788;2022-10-16T18:45:35;14.30;;;12.10;;
38611;SDS011;24368;52.156;20.788;2022-10-16T18:50:37;13.40;;;12.10;;
38611;SDS011;24368;52.156;20.788;2022-10-16T18:55:38;13.60;;;12.10;;
38611;SDS011;24368;52.156;20.788;2022-10-16T19:00:40;14.30;;;12.90;;
38611;SDS011;24368;52.156;20.788;2022-10-16T19:05:41;13.90;;;12.40;;
38611;SDS011;24368;52.156;20.788;2022-10-16T19:10:46;13.40;;;12.10;;
38611;SDS011;24368;52.156;20.788;2022-10-16T19:15:48;16.40;;;14.80;;
38611;SDS011;24368;52.156;20.788;2022-10-16T19:20:49;15.10;;;13.60;;
38611;SDS011;24368;52.156;20.788;2022-10-16T19:25:51;14.40;;;13.00;;
38611;SDS011;24368;52.156;20.788;2022-10-16T19:30:52;15.60;;;12.30;;
38611;SDS011;24368;52.156;20.788;2022-10-16T19:35:54;12.80;;;11.60;;
38611;SDS011;24368;52.156;20.788;2022-10-16T19:40:55;13.70;;;12.50;;
38611;SDS011;24368;52.156;20.788;2022-10-16T19:46:06;14.20;;;12.40;;
38611;SDS011;24368;52.156;20.788;2022-10-16T19:51:28;15.50;;;13.00;;
38611;SDS011;24368;52.156;20.788;2022-10-16T19:56:31;15.90;;;12.60;;
38611;SDS011;24368;52.156;20.788;2022-10-16T20:01:34;15.30;;;13.80;;
38611;SDS011;24368;52.156;20.788;2022-10-16T20:06:35;15.90;;;14.30;;
38611;SDS011;24368;52.156;20.788;2022-10-16T20:11:37;14.40;;;12.80;;
38611;SDS011;24368;52.156;20.788;2022-10-16T20:16:39;15.40;;;12.50;;
38611;SDS011;24368;52.156;20.788;2022-10-16T20:21:40;15.70;;;14.10;;
38611;SDS011;24368;52.156;20.788;2022-10-16T20:26:42;14.60;;;13.20;;
38611;SDS011;24368;52.156;20.788;2022-10-16T20:31:44;14.00;;;12.60;;
38611;SDS011;24368;52.156;20.788;2022-10-16T20:36:46;13.60;;;12.20;;
38611;SDS011;24368;52.156;20.788;2022-10-16T20:41:47;14.30;;;12.80;;
38611;SDS011;24368;52.156;20.788;2022-10-16T20:46:49;13.10;;;11.80;;
38611;SDS011;24368;52.156;20.788;2022-10-16T20:51:50;15.00;;;13.50;;
38611;SDS011;24368;52.156;20.788;2022-10-16T20:56:52;15.50;;;12.00;;
38611;SDS011;24368;52.156;20.788;2022-10-16T21:01:54;15.10;;;13.70;;
38611;SDS011;24368;52.156;20.788;2022-10-16T21:06:55;14.30;;;12.90;;
38611;SDS011;24368;52.156;20.788;2022-10-16T21:11:57;14.70;;;13.00;;
38611;SDS011;24368;52.156;20.788;2022-10-16T21:16:58;14.50;;;13.10;;
38611;SDS011;24368;52.156;20.788;2022-10-16T21:22:01;13.90;;;12.60;;
38611;SDS011;24368;52.156;20.788;2022-10-16T21:27:03;12.40;;;11.20;;
38611;SDS011;24368;52.156;20.788;2022-10-16T21:32:04;13.60;;;12.20;;
38611;SDS011;24368;52.156;20.788;2022-10-16T21:37:06;14.60;;;13.20;;
38611;SDS011;24368;52.156;20.788;2022-10-16T21:42:07;15.80;;;14.20;;
38611;SDS011;24368;52.156;20.788;2022-10-16T21:47:09;15.70;;;14.20;;
38611;SDS011;24368;52.156;20.788;2022-10-16T21:52:11;14.70;;;13.20;;
38611;SDS011;24368;52.156;20.788;2022-10-16T21:57:12;15.00;;;13.40;;
38611;SDS011;24368;52.156;20.788;2022-10-16T22:02:14;14.70;;;13.20;;
38611;SDS011;24368;52.156;20.788;2022-10-16T22:07:15;16.90;;;15.30;;
38611;SDS011;24368;52.156;20.788;2022-10-16T22:12:17;15.30;;;13.80;;
38611;SDS011;24368;52.156;20.788;2022-10-16T22:17:19;15.10;;;13.70;;
38611;SDS011;24368;52.156;20.788;2022-10-16T22:22:21;15.00;;;13.60;;
38611;SDS011;24368;52.156;20.788;2022-10-16T22:27:22;15.60;;;14.00;;
38611;SDS011;24368;52.156;20.788;2022-10-16T22:32:24;16.40;;;14.70;;
38611;SDS011;24368;52.156;20.788;2022-10-16T22:37:25;15.50;;;13.90;;
38611;SDS011;24368;52.156;20.788;2022-10-16T22:42:27;18.50;;;14.50;;
38611;SDS011;24368;52.156;20.788;2022-10-16T22:47:29;15.30;;;13.50;;
38611;SDS011;24368;52.156;20.788;2022-10-16T22:52:30;15.70;;;14.20;;
38611;SDS011;24368;52.156;20.788;2022-10-16T22:57:32;16.80;;;15.20;;
38611;SDS011;24368;52.156;20.788;2022-10-16T23:02:34;16.00;;;14.30;;
38611;SDS011;24368;52.156;20.788;2022-10-16T23:07:35;15.00;;;13.60;;
38611;SDS011;24368;52.156;20.788;2022-10-16T23:12:38;14.80;;;13.30;;
38611;SDS011;24368;52.156;20.788;2022-10-16T23:17:39;15.30;;;13.60;;
38611;SDS011;24368;52.156;20.788;2022-10-16T23:22:41;15.20;;;13.70;;
38611;SDS011;24368;52.156;20.788;2022-10-16T23:27:42;15.60;;;14.10;;
38611;SDS011;24368;52.156;20.788;2022-10-16T23:32:44;17.10;;;14.60;;
38611;SDS011;24368;52.156;20.788;2022-10-16T23:37:45;17.60;;;15.80;;
38611;SDS011;24368;52.156;20.788;2022-10-16T23:42:47;15.20;;;13.60;;
38611;SDS011;24368;52.156;20.788;2022-10-16T23:47:48;16.20;;;14.50;;
38611;SDS011;24368;52.156;20.788;2022-10-16T23:52:50;16.70;;;15.00;;
38611;SDS011;24368;52.156;20.788;2022-10-16T23:57:51;19.50;;;17.60;;
